SAAC/COC METAR and TAF weather

Enter ICAO airport designator
Station Type Date Time Source
SAAC METAR 2019/10/08 11:40 UTC NOAA

SAAC 081140Z 20002KT 9999 TS SCT040 FEW050CB BKN100 17/15 Q1020


Station Type Date Time Source
SAAC Decoded METAR 2019/10/08 11:40 UTC NOAA

Concordia Aerodrome, Argentina (SAAC) 31-18S 058-01W 38M
Oct 08, 2019 - 07:40 AM EDT / 2019.10.08 1140 UTC
Wind: from the SSW (200 degrees) at 2 MPH (2 KT):0
Visibility: greater than 7 mile(s):0
Sky conditions: mostly cloudy
Weather: thunder; Cumulonimbus clouds observed
Temperature: 62 F (17 C)
Dew Point: 59 F (15 C)
Relative Humidity: 88%
Pressure (altimeter): 30.12 in. Hg (1020 hPa)
ob: SAAC 081140Z 20002KT 9999 TS SCT040 FEW050CB BKN100 17/15 Q1020
cycle: 11

Station Type Date Time Source
SAAC TAF UTC NOAA

Error!

Example: see airport list